Startpagina
METAR-TAF:

METAR-TAF

Vliegvelden :

Ingolstadt, Duitsland

breedte: 48-43N, lengte: 011-32E, hoogte: 367 m

Actueel weer

Dit bericht is 1 uur en het 6 minuten geleden gemaakt, om 17:20 UTC
Wind 4 kt uit het westzuidwesten
Temperatuur 8°C
Vochtigheid 93%
Druk 1019 hPa
Zicht 10 km of meer
Weinig wolken op 2000 ft
Geheel bewolkt op 3600 ft
lichte regen

METAR: ETSI 171720Z 24004KT 9999 -RA FEW020 OVC036 08/07 Q1019 BLU

Tijdstip: 19:26 (18:26 UTC)

Verwachting

Dit bericht is 4 uur en het 11 minuten geleden gemaakt, om 14:15 UTC
Verwachting geldig van 17 om 15 UTC tot 17 om 24 UTC
Wind 7 kt uit het westen
Zicht 10 km of meer
Gebroken wolken op 3000 ft
Gebroken wolken op 25000 ft
Tijdelijke
van 17 om 15 UTC tot 17 om 24 UTC
Wind 12 kt uit het westen
Zicht: 1520 m
Gebroken wolken op 2000 ft
Gebroken wolken op 10000 ft
Gebroken wolken op 23000 ft
lichte regen

TAF: ETSI 171415Z 1715/1724 26007KT 9999 NSW BKN030 BKN250 TEMPO 1715/1724 28012KT 6000 -RA BKN020 BKN100 BKN230 CANCEL 1520

Waarnemingen en weersverwachtingen van meer dan 4000 vliegvelden (METAR en TAF).

De beschikbare stations zijn de gele en rode punten op de kaart.

Ga met uw muis naar het station om de naam te zien.

Klik dan om waarnemingen en weersverwachtingen te zien.

kaart wijzigen: klik op de groene knoppen met een zwart kruis om in te zoomen, op de groene knop met een streepje om uit te zoomen of op de groene pijlen voor aangrenzende kaarten.


METAR-TAF: